sensor_id;sensor_type;location;lat;lon;timestamp;P1;durP1;ratioP1;P2;durP2;ratioP2
67528;SDS011;54366;51.980;5.856;2022-09-27T00:01:07;4.78;;;0.68;;
67528;SDS011;54366;51.980;5.856;2022-09-27T00:03:36;1.90;;;0.60;;
67528;SDS011;54366;51.980;5.856;2022-09-27T00:06:03;2.97;;;0.60;;
67528;SDS011;54366;51.980;5.856;2022-09-27T00:08:30;2.70;;;0.60;;
67528;SDS011;54366;51.980;5.856;2022-09-27T00:11:00;1.73;;;0.63;;
67528;SDS011;54366;51.980;5.856;2022-09-27T00:13:31;2.47;;;0.57;;
67528;SDS011;54366;51.980;5.856;2022-09-27T00:15:58;2.45;;;0.60;;
67528;SDS011;54366;51.980;5.856;2022-09-27T00:18:26;3.75;;;0.75;;
67528;SDS011;54366;51.980;5.856;2022-09-27T00:20:52;3.03;;;0.60;;
67528;SDS011;54366;51.980;5.856;2022-09-27T00:23:19;0.73;;;0.22;;
67528;SDS011;54366;51.980;5.856;2022-09-27T00:25:55;1.95;;;0.60;;
67528;SDS011;54366;51.980;5.856;2022-09-27T00:28:22;1.95;;;0.40;;
67528;SDS011;54366;51.980;5.856;2022-09-27T00:30:49;2.15;;;0.60;;
67528;SDS011;54366;51.980;5.856;2022-09-27T00:33:15;1.70;;;0.63;;
67528;SDS011;54366;51.980;5.856;2022-09-27T00:35:41;2.40;;;0.50;;
67528;SDS011;54366;51.980;5.856;2022-09-27T00:38:08;2.15;;;0.70;;
67528;SDS011;54366;51.980;5.856;2022-09-27T00:40:35;1.58;;;0.40;;
67528;SDS011;54366;51.980;5.856;2022-09-27T00:43:01;2.45;;;0.60;;
67528;SDS011;54366;51.980;5.856;2022-09-27T00:45:28;3.78;;;0.63;;
67528;SDS011;54366;51.980;5.856;2022-09-27T00:47:58;0.90;;;0.45;;
67528;SDS011;54366;51.980;5.856;2022-09-27T00:50:36;2.97;;;0.20;;
67528;SDS011;54366;51.980;5.856;2022-09-27T00:53:09;1.45;;;0.30;;
67528;SDS011;54366;51.980;5.856;2022-09-27T00:58:28;1.42;;;0.32;;
67528;SDS011;54366;51.980;5.856;2022-09-27T01:01:00;2.03;;;0.40;;
67528;SDS011;54366;51.980;5.856;2022-09-27T01:03:36;1.58;;;0.40;;
67528;SDS011;54366;51.980;5.856;2022-09-27T01:06:09;1.67;;;0.38;;
67528;SDS011;54366;51.980;5.856;2022-09-27T01:08:36;1.25;;;0.40;;
67528;SDS011;54366;51.980;5.856;2022-09-27T01:11:12;0.85;;;0.20;;
67528;SDS011;54366;51.980;5.856;2022-09-27T01:21:59;1.33;;;0.38;;
67528;SDS011;54366;51.980;5.856;2022-09-27T01:30:15;1.05;;;0.20;;
67528;SDS011;54366;51.980;5.856;2022-09-27T01:32:51;3.20;;;0.30;;
67528;SDS011;54366;51.980;5.856;2022-09-27T01:38:11;1.58;;;0.35;;
67528;SDS011;54366;51.980;5.856;2022-09-27T01:43:42;1.95;;;0.40;;
67528;SDS011;54366;51.980;5.856;2022-09-27T01:46:18;2.30;;;0.30;;
67528;SDS011;54366;51.980;5.856;2022-09-27T01:49:12;2.40;;;0.40;;
67528;SDS011;54366;51.980;5.856;2022-09-27T01:51:46;1.25;;;0.30;;
67528;SDS011;54366;51.980;5.856;2022-09-27T01:54:22;2.28;;;0.35;;
67528;SDS011;54366;51.980;5.856;2022-09-27T01:57:21;1.58;;;0.40;;
67528;SDS011;54366;51.980;5.856;2022-09-27T01:59:52;2.55;;;0.30;;
67528;SDS011;54366;51.980;5.856;2022-09-27T02:02:48;1.80;;;0.30;;
67528;SDS011;54366;51.980;5.856;2022-09-27T02:05:41;2.08;;;0.22;;
67528;SDS011;54366;51.980;5.856;2022-09-27T02:08:33;1.25;;;0.10;;
67528;SDS011;54366;51.980;5.856;2022-09-27T02:11:15;1.02;;;0.30;;
67528;SDS011;54366;51.980;5.856;2022-09-27T02:13:51;1.80;;;0.20;;
67528;SDS011;54366;51.980;5.856;2022-09-27T02:21:57;1.55;;;0.38;;
67528;SDS011;54366;51.980;5.856;2022-09-27T02:24:54;2.50;;;0.50;;
67528;SDS011;54366;51.980;5.856;2022-09-27T02:27:28;2.00;;;0.50;;
67528;SDS011;54366;51.980;5.856;2022-09-27T02:30:10;2.00;;;0.40;;
67528;SDS011;54366;51.980;5.856;2022-09-27T02:32:40;1.35;;;0.50;;
67528;SDS011;54366;51.980;5.856;2022-09-27T02:35:13;2.88;;;0.40;;
67528;SDS011;54366;51.980;5.856;2022-09-27T02:37:51;1.48;;;0.30;;
67528;SDS011;54366;51.980;5.856;2022-09-27T02:40:19;1.38;;;0.30;;
67528;SDS011;54366;51.980;5.856;2022-09-27T02:42:46;1.17;;;0.20;;
67528;SDS011;54366;51.980;5.856;2022-09-27T02:45:13;1.55;;;0.30;;
67528;SDS011;54366;51.980;5.856;2022-09-27T03:00:29;2.13;;;0.30;;
67528;SDS011;54366;51.980;5.856;2022-09-27T03:03:44;1.35;;;0.20;;
67528;SDS011;54366;51.980;5.856;2022-09-27T03:06:21;1.05;;;0.15;;
67528;SDS011;54366;51.980;5.856;2022-09-27T03:08:49;1.20;;;0.20;;
67528;SDS011;54366;51.980;5.856;2022-09-27T03:11:16;1.08;;;0.20;;
67528;SDS011;54366;51.980;5.856;2022-09-27T03:13:43;1.73;;;0.30;;
67528;SDS011;54366;51.980;5.856;2022-09-27T03:16:10;1.17;;;0.20;;
67528;SDS011;54366;51.980;5.856;2022-09-27T03:19:02;0.95;;;0.25;;
67528;SDS011;54366;51.980;5.856;2022-09-27T03:21:48;1.42;;;0.22;;
67528;SDS011;54366;51.980;5.856;2022-09-27T03:24:14;3.45;;;0.30;;
67528;SDS011;54366;51.980;5.856;2022-09-27T03:26:41;2.20;;;0.40;;
67528;SDS011;54366;51.980;5.856;2022-09-27T03:29:07;1.23;;;0.20;;
67528;SDS011;54366;51.980;5.856;2022-09-27T03:31:34;4.40;;;0.40;;
67528;SDS011;54366;51.980;5.856;2022-09-27T03:34:29;2.25;;;0.50;;
67528;SDS011;54366;51.980;5.856;2022-09-27T03:36:55;3.03;;;0.40;;
67528;SDS011;54366;51.980;5.856;2022-09-27T03:39:22;1.60;;;0.40;;
67528;SDS011;54366;51.980;5.856;2022-09-27T03:41:48;2.47;;;0.40;;
67528;SDS011;54366;51.980;5.856;2022-09-27T03:44:14;2.38;;;0.52;;
67528;SDS011;54366;51.980;5.856;2022-09-27T03:46:40;2.35;;;0.60;;
67528;SDS011;54366;51.980;5.856;2022-09-27T03:49:07;1.88;;;0.38;;
67528;SDS011;54366;51.980;5.856;2022-09-27T03:51:33;1.02;;;0.47;;
67528;SDS011;54366;51.980;5.856;2022-09-27T03:53:59;1.98;;;0.50;;
67528;SDS011;54366;51.980;5.856;2022-09-27T03:56:25;1.05;;;0.35;;
67528;SDS011;54366;51.980;5.856;2022-09-27T03:58:52;3.30;;;0.60;;
67528;SDS011;54366;51.980;5.856;2022-09-27T04:01:18;3.03;;;0.50;;
67528;SDS011;54366;51.980;5.856;2022-09-27T04:03:49;2.05;;;0.30;;
67528;SDS011;54366;51.980;5.856;2022-09-27T04:06:28;2.72;;;0.60;;
67528;SDS011;54366;51.980;5.856;2022-09-27T04:08:55;1.65;;;0.55;;
67528;SDS011;54366;51.980;5.856;2022-09-27T04:11:25;2.72;;;0.70;;
67528;SDS011;54366;51.980;5.856;2022-09-27T04:13:52;1.95;;;0.45;;
67528;SDS011;54366;51.980;5.856;2022-09-27T04:16:21;2.47;;;0.40;;
67528;SDS011;54366;51.980;5.856;2022-09-27T04:19:06;2.33;;;0.60;;
67528;SDS011;54366;51.980;5.856;2022-09-27T04:21:33;3.78;;;0.70;;
67528;SDS011;54366;51.980;5.856;2022-09-27T04:24:00;2.78;;;0.90;;
67528;SDS011;54366;51.980;5.856;2022-09-27T04:26:27;3.25;;;0.65;;
67528;SDS011;54366;51.980;5.856;2022-09-27T04:29:00;3.90;;;0.80;;
67528;SDS011;54366;51.980;5.856;2022-09-27T04:31:26;3.83;;;0.60;;
67528;SDS011;54366;51.980;5.856;2022-09-27T04:34:19;4.03;;;0.85;;
67528;SDS011;54366;51.980;5.856;2022-09-27T04:37:06;2.20;;;0.60;;
67528;SDS011;54366;51.980;5.856;2022-09-27T04:39:38;1.92;;;0.50;;
67528;SDS011;54366;51.980;5.856;2022-09-27T04:42:04;3.47;;;0.98;;
67528;SDS011;54366;51.980;5.856;2022-09-27T04:44:31;1.98;;;0.55;;
67528;SDS011;54366;51.980;5.856;2022-09-27T04:46:57;4.20;;;0.85;;
67528;SDS011;54366;51.980;5.856;2022-09-27T04:49:23;2.33;;;0.85;;
67528;SDS011;54366;51.980;5.856;2022-09-27T04:51:49;3.97;;;1.05;;
67528;SDS011;54366;51.980;5.856;2022-09-27T04:54:15;5.00;;;1.17;;
67528;SDS011;54366;51.980;5.856;2022-09-27T04:57:05;2.72;;;0.82;;
67528;SDS011;54366;51.980;5.856;2022-09-27T04:59:32;3.60;;;0.70;;
67528;SDS011;54366;51.980;5.856;2022-09-27T05:01:58;3.17;;;0.88;;
67528;SDS011;54366;51.980;5.856;2022-09-27T05:04:40;3.95;;;0.70;;
67528;SDS011;54366;51.980;5.856;2022-09-27T05:07:08;3.22;;;0.90;;
67528;SDS011;54366;51.980;5.856;2022-09-27T05:09:40;5.30;;;1.05;;
67528;SDS011;54366;51.980;5.856;2022-09-27T05:12:07;2.95;;;0.70;;
67528;SDS011;54366;51.980;5.856;2022-09-27T05:14:42;3.78;;;0.73;;
67528;SDS011;54366;51.980;5.856;2022-09-27T05:17:21;1.63;;;0.60;;
67528;SDS011;54366;51.980;5.856;2022-09-27T05:20:06;4.60;;;0.80;;
67528;SDS011;54366;51.980;5.856;2022-09-27T05:22:48;3.55;;;0.70;;
67528;SDS011;54366;51.980;5.856;2022-09-27T05:25:14;3.83;;;0.75;;
67528;SDS011;54366;51.980;5.856;2022-09-27T05:27:41;2.75;;;0.70;;
67528;SDS011;54366;51.980;5.856;2022-09-27T05:30:08;3.20;;;0.70;;
67528;SDS011;54366;51.980;5.856;2022-09-27T05:32:46;2.25;;;0.55;;
67528;SDS011;54366;51.980;5.856;2022-09-27T05:35:30;3.90;;;0.63;;
67528;SDS011;54366;51.980;5.856;2022-09-27T05:37:58;4.35;;;0.63;;
67528;SDS011;54366;51.980;5.856;2022-09-27T05:40:28;4.90;;;0.63;;
67528;SDS011;54366;51.980;5.856;2022-09-27T05:42:55;2.92;;;0.50;;
67528;SDS011;54366;51.980;5.856;2022-09-27T05:45:21;2.50;;;0.30;;
67528;SDS011;54366;51.980;5.856;2022-09-27T05:47:52;1.02;;;0.30;;
67528;SDS011;54366;51.980;5.856;2022-09-27T05:50:24;2.83;;;0.50;;
67528;SDS011;54366;51.980;5.856;2022-09-27T05:52:51;2.30;;;0.50;;
67528;SDS011;54366;51.980;5.856;2022-09-27T05:55:19;1.83;;;0.47;;
67528;SDS011;54366;51.980;5.856;2022-09-27T05:57:52;2.95;;;0.77;;
67528;SDS011;54366;51.980;5.856;2022-09-27T06:00:49;3.08;;;0.60;;
67528;SDS011;54366;51.980;5.856;2022-09-27T06:03:35;2.90;;;0.70;;
67528;SDS011;54366;51.980;5.856;2022-09-27T06:06:20;2.03;;;0.40;;
67528;SDS011;54366;51.980;5.856;2022-09-27T06:08:53;1.55;;;0.43;;
67528;SDS011;54366;51.980;5.856;2022-09-27T06:11:20;2.40;;;0.68;;
67528;SDS011;54366;51.980;5.856;2022-09-27T06:13:48;4.60;;;0.40;;
67528;SDS011;54366;51.980;5.856;2022-09-27T06:16:15;2.25;;;0.60;;
67528;SDS011;54366;51.980;5.856;2022-09-27T06:18:44;2.35;;;0.60;;
67528;SDS011;54366;51.980;5.856;2022-09-27T06:21:10;3.28;;;0.68;;
67528;SDS011;54366;51.980;5.856;2022-09-27T06:23:39;3.40;;;0.70;;
67528;SDS011;54366;51.980;5.856;2022-09-27T06:26:19;1.88;;;0.30;;
67528;SDS011;54366;51.980;5.856;2022-09-27T06:28:51;2.28;;;0.30;;
67528;SDS011;54366;51.980;5.856;2022-09-27T06:31:17;1.65;;;0.40;;
67528;SDS011;54366;51.980;5.856;2022-09-27T06:33:51;1.92;;;0.40;;
67528;SDS011;54366;51.980;5.856;2022-09-27T06:36:17;1.55;;;0.40;;
67528;SDS011;54366;51.980;5.856;2022-09-27T06:38:45;2.97;;;0.80;;
67528;SDS011;54366;51.980;5.856;2022-09-27T06:41:29;2.20;;;0.50;;
67528;SDS011;54366;51.980;5.856;2022-09-27T06:44:18;2.20;;;0.55;;
67528;SDS011;54366;51.980;5.856;2022-09-27T06:47:23;3.20;;;0.52;;
67528;SDS011;54366;51.980;5.856;2022-09-27T06:50:29;1.13;;;0.32;;
67528;SDS011;54366;51.980;5.856;2022-09-27T06:53:01;1.70;;;0.30;;
67528;SDS011;54366;51.980;5.856;2022-09-27T06:55:28;1.23;;;0.40;;
67528;SDS011;54366;51.980;5.856;2022-09-27T06:57:54;4.10;;;0.43;;
67528;SDS011;54366;51.980;5.856;2022-09-27T07:00:49;2.03;;;0.50;;
67528;SDS011;54366;51.980;5.856;2022-09-27T07:03:25;1.92;;;0.55;;
67528;SDS011;54366;51.980;5.856;2022-09-27T07:06:15;1.38;;;0.40;;
67528;SDS011;54366;51.980;5.856;2022-09-27T07:08:58;2.40;;;0.73;;
67528;SDS011;54366;51.980;5.856;2022-09-27T07:11:24;2.78;;;0.60;;
67528;SDS011;54366;51.980;5.856;2022-09-27T07:13:51;2.28;;;0.50;;
67528;SDS011;54366;51.980;5.856;2022-09-27T07:16:18;2.00;;;0.43;;
67528;SDS011;54366;51.980;5.856;2022-09-27T07:18:44;2.70;;;0.52;;
67528;SDS011;54366;51.980;5.856;2022-09-27T07:21:13;1.58;;;0.40;;
67528;SDS011;54366;51.980;5.856;2022-09-27T07:23:41;0.88;;;0.38;;
67528;SDS011;54366;51.980;5.856;2022-09-27T07:26:09;2.47;;;0.50;;
67528;SDS011;54366;51.980;5.856;2022-09-27T07:28:35;1.73;;;0.47;;
67528;SDS011;54366;51.980;5.856;2022-09-27T07:31:02;1.88;;;0.50;;
67528;SDS011;54366;51.980;5.856;2022-09-27T07:33:30;2.15;;;0.50;;
67528;SDS011;54366;51.980;5.856;2022-09-27T07:35:58;1.92;;;0.57;;
67528;SDS011;54366;51.980;5.856;2022-09-27T07:38:25;2.47;;;0.65;;
67528;SDS011;54366;51.980;5.856;2022-09-27T07:40:51;1.55;;;0.50;;
67528;SDS011;54366;51.980;5.856;2022-09-27T07:43:18;0.75;;;0.40;;
67528;SDS011;54366;51.980;5.856;2022-09-27T07:45:44;3.35;;;0.63;;
67528;SDS011;54366;51.980;5.856;2022-09-27T07:51:04;3.17;;;0.80;;
67528;SDS011;54366;51.980;5.856;2022-09-27T07:53:44;1.67;;;0.45;;
67528;SDS011;54366;51.980;5.856;2022-09-27T07:56:29;3.60;;;0.60;;
67528;SDS011;54366;51.980;5.856;2022-09-27T07:58:56;2.80;;;0.63;;
67528;SDS011;54366;51.980;5.856;2022-09-27T08:01:22;2.75;;;0.52;;
67528;SDS011;54366;51.980;5.856;2022-09-27T08:03:48;0.90;;;0.30;;
67528;SDS011;54366;51.980;5.856;2022-09-27T08:06:15;1.20;;;0.50;;
67528;SDS011;54366;51.980;5.856;2022-09-27T08:08:43;1.77;;;0.50;;
67528;SDS011;54366;51.980;5.856;2022-09-27T08:11:11;1.13;;;0.25;;
67528;SDS011;54366;51.980;5.856;2022-09-27T08:13:43;1.23;;;0.22;;
67528;SDS011;54366;51.980;5.856;2022-09-27T08:16:10;0.93;;;0.30;;
67528;SDS011;54366;51.980;5.856;2022-09-27T08:19:13;1.02;;;0.30;;
67528;SDS011;54366;51.980;5.856;2022-09-27T08:22:00;1.40;;;0.32;;
67528;SDS011;54366;51.980;5.856;2022-09-27T08:24:32;1.15;;;0.40;;
67528;SDS011;54366;51.980;5.856;2022-09-27T08:27:17;2.15;;;0.50;;
67528;SDS011;54366;51.980;5.856;2022-09-27T08:29:50;1.83;;;0.45;;
67528;SDS011;54366;51.980;5.856;2022-09-27T08:32:16;2.88;;;0.52;;
67528;SDS011;54366;51.980;5.856;2022-09-27T08:34:43;0.82;;;0.47;;
67528;SDS011;54366;51.980;5.856;2022-09-27T08:37:10;2.55;;;0.32;;
67528;SDS011;54366;51.980;5.856;2022-09-27T08:39:38;1.55;;;0.45;;
67528;SDS011;54366;51.980;5.856;2022-09-27T08:42:09;1.33;;;0.50;;
67528;SDS011;54366;51.980;5.856;2022-09-27T08:47:24;1.48;;;0.50;;
67528;SDS011;54366;51.980;5.856;2022-09-27T08:50:03;2.75;;;0.60;;
67528;SDS011;54366;51.980;5.856;2022-09-27T08:52:51;1.13;;;0.60;;
67528;SDS011;54366;51.980;5.856;2022-09-27T08:58:03;2.38;;;0.63;;
67528;SDS011;54366;51.980;5.856;2022-09-27T09:00:37;1.50;;;0.50;;
67528;SDS011;54366;51.980;5.856;2022-09-27T09:03:04;1.05;;;0.65;;
67528;SDS011;54366;51.980;5.856;2022-09-27T09:05:36;1.90;;;0.60;;
67528;SDS011;54366;51.980;5.856;2022-09-27T09:10:52;2.50;;;0.80;;
67528;SDS011;54366;51.980;5.856;2022-09-27T09:13:53;0.93;;;0.50;;
67528;SDS011;54366;51.980;5.856;2022-09-27T09:27:53;1.63;;;0.60;;
67528;SDS011;54366;51.980;5.856;2022-09-27T09:30:51;1.45;;;0.60;;
67528;SDS011;54366;51.980;5.856;2022-09-27T09:33:33;2.28;;;0.63;;
67528;SDS011;54366;51.980;5.856;2022-09-27T09:36:08;1.30;;;0.60;;
67528;SDS011;54366;51.980;5.856;2022-09-27T09:38:47;2.47;;;0.70;;
67528;SDS011;54366;51.980;5.856;2022-09-27T09:41:30;1.35;;;0.60;;
67528;SDS011;54366;51.980;5.856;2022-09-27T09:46:42;2.15;;;0.70;;
67528;SDS011;54366;51.980;5.856;2022-09-27T09:52:13;1.77;;;0.70;;
67528;SDS011;54366;51.980;5.856;2022-09-27T09:54:53;1.63;;;0.60;;
67528;SDS011;54366;51.980;5.856;2022-09-27T09:57:27;2.38;;;0.30;;
67528;SDS011;54366;51.980;5.856;2022-09-27T10:00:13;1.17;;;0.28;;
67528;SDS011;54366;51.980;5.856;2022-09-27T10:02:45;1.92;;;0.50;;
67528;SDS011;54366;51.980;5.856;2022-09-27T10:07:52;1.48;;;0.30;;
67528;SDS011;54366;51.980;5.856;2022-09-27T10:10:24;3.55;;;0.47;;
67528;SDS011;54366;51.980;5.856;2022-09-27T10:13:10;1.40;;;0.60;;
67528;SDS011;54366;51.980;5.856;2022-09-27T10:16:19;1.70;;;0.60;;
67528;SDS011;54366;51.980;5.856;2022-09-27T10:18:41;1.52;;;0.50;;
67528;SDS011;54366;51.980;5.856;2022-09-27T10:21:12;3.30;;;0.80;;
67528;SDS011;54366;51.980;5.856;2022-09-27T10:24:21;3.40;;;0.65;;
67528;SDS011;54366;51.980;5.856;2022-09-27T10:27:07;2.22;;;0.68;;
67528;SDS011;54366;51.980;5.856;2022-09-27T10:29:35;1.77;;;0.40;;
67528;SDS011;54366;51.980;5.856;2022-09-27T10:32:11;2.33;;;0.50;;
67528;SDS011;54366;51.980;5.856;2022-09-27T10:34:48;1.50;;;0.60;;
67528;SDS011;54366;51.980;5.856;2022-09-27T10:37:17;0.88;;;0.38;;
67528;SDS011;54366;51.980;5.856;2022-09-27T10:39:58;1.98;;;0.40;;
67528;SDS011;54366;51.980;5.856;2022-09-27T10:42:35;2.03;;;0.55;;
67528;SDS011;54366;51.980;5.856;2022-09-27T10:48:19;1.50;;;0.40;;
67528;SDS011;54366;51.980;5.856;2022-09-27T10:50:58;0.75;;;0.20;;
67528;SDS011;54366;51.980;5.856;2022-09-27T10:53:35;1.45;;;0.30;;
67528;SDS011;54366;51.980;5.856;2022-09-27T10:56:13;1.05;;;0.40;;
67528;SDS011;54366;51.980;5.856;2022-09-27T10:58:47;2.38;;;0.40;;
67528;SDS011;54366;51.980;5.856;2022-09-27T11:01:15;1.20;;;0.35;;
67528;SDS011;54366;51.980;5.856;2022-09-27T11:05:00;1.67;;;0.40;;
67528;SDS011;54366;51.980;5.856;2022-09-27T11:07:14;3.55;;;0.35;;
67528;SDS011;54366;51.980;5.856;2022-09-27T11:09:54;1.63;;;0.28;;
67528;SDS011;54366;51.980;5.856;2022-09-27T11:12:29;1.13;;;0.25;;
67528;SDS011;54366;51.980;5.856;2022-09-27T11:15:02;1.15;;;0.30;;
67528;SDS011;54366;51.980;5.856;2022-09-27T11:17:38;1.73;;;0.30;;
67528;SDS011;54366;51.980;5.856;2022-09-27T11:20:26;1.08;;;0.30;;
67528;SDS011;54366;51.980;5.856;2022-09-27T11:23:22;1.23;;;0.20;;
67528;SDS011;54366;51.980;5.856;2022-09-27T11:26:25;1.13;;;0.20;;
67528;SDS011;54366;51.980;5.856;2022-09-27T11:46:37;1.48;;;0.20;;
67528;SDS011;54366;51.980;5.856;2022-09-27T11:52:25;0.63;;;0.25;;
67528;SDS011;54366;51.980;5.856;2022-09-27T12:00:56;0.40;;;0.13;;
67528;SDS011;54366;51.980;5.856;2022-09-27T12:03:36;0.75;;;0.20;;
67528;SDS011;54366;51.980;5.856;2022-09-27T12:06:12;1.15;;;0.10;;
67528;SDS011;54366;51.980;5.856;2022-09-27T12:11:25;0.40;;;0.10;;
67528;SDS011;54366;51.980;5.856;2022-09-27T12:16:59;0.60;;;0.20;;
67528;SDS011;54366;51.980;5.856;2022-09-27T12:19:31;1.10;;;0.10;;
67528;SDS011;54366;51.980;5.856;2022-09-27T12:22:05;1.25;;;0.20;;
67528;SDS011;54366;51.980;5.856;2022-09-27T12:24:39;0.50;;;0.20;;
67528;SDS011;54366;51.980;5.856;2022-09-27T12:27:37;1.25;;;0.20;;
67528;SDS011;54366;51.980;5.856;2022-09-27T12:30:12;0.80;;;0.17;;
67528;SDS011;54366;51.980;5.856;2022-09-27T12:35:18;0.35;;;0.10;;
67528;SDS011;54366;51.980;5.856;2022-09-27T12:37:51;0.60;;;0.08;;
67528;SDS011;54366;51.980;5.856;2022-09-27T12:40:48;0.63;;;0.10;;
67528;SDS011;54366;51.980;5.856;2022-09-27T12:43:27;1.05;;;0.10;;
67528;SDS011;54366;51.980;5.856;2022-09-27T12:49:08;0.30;;;0.10;;
67528;SDS011;54366;51.980;5.856;2022-09-27T12:51:38;0.40;;;0.10;;
67528;SDS011;54366;51.980;5.856;2022-09-27T12:57:17;0.30;;;0.10;;
67528;SDS011;54366;51.980;5.856;2022-09-27T13:02:26;1.50;;;0.30;;
67528;SDS011;54366;51.980;5.856;2022-09-27T13:05:06;1.38;;;0.20;;
67528;SDS011;54366;51.980;5.856;2022-09-27T13:13:34;0.85;;;0.43;;
67528;SDS011;54366;51.980;5.856;2022-09-27T13:16:06;0.52;;;0.30;;
67528;SDS011;54366;51.980;5.856;2022-09-27T13:32:34;0.57;;;0.32;;
67528;SDS011;54366;51.980;5.856;2022-09-27T13:35:22;1.50;;;0.30;;
67528;SDS011;54366;51.980;5.856;2022-09-27T13:38:01;1.15;;;0.35;;
67528;SDS011;54366;51.980;5.856;2022-09-27T13:40:33;1.00;;;0.20;;
67528;SDS011;54366;51.980;5.856;2022-09-27T13:48:25;2.10;;;0.35;;
67528;SDS011;54366;51.980;5.856;2022-09-27T13:51:15;2.05;;;0.40;;
67528;SDS011;54366;51.980;5.856;2022-09-27T13:53:59;0.85;;;0.35;;
67528;SDS011;54366;51.980;5.856;2022-09-27T14:01:45;1.00;;;0.30;;
67528;SDS011;54366;51.980;5.856;2022-09-27T14:04:21;1.23;;;0.20;;
67528;SDS011;54366;51.980;5.856;2022-09-27T14:06:52;0.95;;;0.22;;
67528;SDS011;54366;51.980;5.856;2022-09-27T14:09:29;0.98;;;0.22;;
67528;SDS011;54366;51.980;5.856;2022-09-27T14:12:19;1.58;;;0.30;;
67528;SDS011;54366;51.980;5.856;2022-09-27T14:14:50;1.10;;;0.40;;
67528;SDS011;54366;51.980;5.856;2022-09-27T14:17:20;0.85;;;0.30;;
67528;SDS011;54366;51.980;5.856;2022-09-27T14:19:47;1.23;;;0.30;;
67528;SDS011;54366;51.980;5.856;2022-09-27T14:22:17;0.55;;;0.20;;
67528;SDS011;54366;51.980;5.856;2022-09-27T14:24:58;0.88;;;0.30;;
67528;SDS011;54366;51.980;5.856;2022-09-27T14:27:35;1.40;;;0.37;;
67528;SDS011;54366;51.980;5.856;2022-09-27T14:30:14;0.77;;;0.20;;
67528;SDS011;54366;51.980;5.856;2022-09-27T14:33:04;0.50;;;0.20;;
67528;SDS011;54366;51.980;5.856;2022-09-27T14:35:47;1.70;;;0.50;;
67528;SDS011;54366;51.980;5.856;2022-09-27T14:38:34;1.17;;;0.70;;
67528;SDS011;54366;51.980;5.856;2022-09-27T14:41:05;0.65;;;0.30;;
67528;SDS011;54366;51.980;5.856;2022-09-27T14:43:32;0.88;;;0.40;;
67528;SDS011;54366;51.980;5.856;2022-09-27T14:46:01;1.10;;;0.38;;
67528;SDS011;54366;51.980;5.856;2022-09-27T14:48:33;0.95;;;0.40;;
67528;SDS011;54366;51.980;5.856;2022-09-27T14:53:50;0.55;;;0.30;;
67528;SDS011;54366;51.980;5.856;2022-09-27T14:56:29;1.27;;;0.35;;
67528;SDS011;54366;51.980;5.856;2022-09-27T15:01:34;0.73;;;0.40;;
67528;SDS011;54366;51.980;5.856;2022-09-27T15:04:03;1.38;;;0.70;;
67528;SDS011;54366;51.980;5.856;2022-09-27T15:06:37;1.20;;;1.10;;
67528;SDS011;54366;51.980;5.856;2022-09-27T15:09:04;3.40;;;3.10;;
67528;SDS011;54366;51.980;5.856;2022-09-27T15:11:31;0.70;;;0.60;;
67528;SDS011;54366;51.980;5.856;2022-09-27T15:13:59;1.45;;;0.40;;
67528;SDS011;54366;51.980;5.856;2022-09-27T15:16:28;2.03;;;0.45;;
67528;SDS011;54366;51.980;5.856;2022-09-27T15:18:59;0.90;;;0.30;;
67528;SDS011;54366;51.980;5.856;2022-09-27T15:21:29;0.75;;;0.30;;
67528;SDS011;54366;51.980;5.856;2022-09-27T15:23:57;0.70;;;0.20;;
67528;SDS011;54366;51.980;5.856;2022-09-27T15:29:01;1.15;;;0.25;;
67528;SDS011;54366;51.980;5.856;2022-09-27T15:31:28;1.15;;;0.35;;
67528;SDS011;54366;51.980;5.856;2022-09-27T15:34:03;1.05;;;0.50;;
67528;SDS011;54366;51.980;5.856;2022-09-27T15:36:49;1.58;;;0.35;;
67528;SDS011;54366;51.980;5.856;2022-09-27T15:39:35;1.52;;;0.50;;
67528;SDS011;54366;51.980;5.856;2022-09-27T15:42:09;1.70;;;0.63;;
67528;SDS011;54366;51.980;5.856;2022-09-27T15:52:54;5.80;;;3.55;;
67528;SDS011;54366;51.980;5.856;2022-09-27T15:55:23;4.93;;;3.03;;
67528;SDS011;54366;51.980;5.856;2022-09-27T15:58:01;5.72;;;2.40;;
67528;SDS011;54366;51.980;5.856;2022-09-27T16:00:30;2.88;;;1.02;;
67528;SDS011;54366;51.980;5.856;2022-09-27T16:02:57;1.25;;;0.60;;
67528;SDS011;54366;51.980;5.856;2022-09-27T16:05:23;1.15;;;0.63;;
67528;SDS011;54366;51.980;5.856;2022-09-27T16:07:49;1.70;;;0.80;;
67528;SDS011;54366;51.980;5.856;2022-09-27T16:10:16;2.72;;;1.98;;
67528;SDS011;54366;51.980;5.856;2022-09-27T16:12:48;2.60;;;1.58;;
67528;SDS011;54366;51.980;5.856;2022-09-27T16:15:15;2.03;;;0.70;;
67528;SDS011;54366;51.980;5.856;2022-09-27T16:17:41;1.60;;;0.60;;
67528;SDS011;54366;51.980;5.856;2022-09-27T16:20:10;1.95;;;1.20;;
67528;SDS011;54366;51.980;5.856;2022-09-27T16:22:42;1.20;;;0.80;;
67528;SDS011;54366;51.980;5.856;2022-09-27T16:25:09;1.92;;;0.73;;
67528;SDS011;54366;51.980;5.856;2022-09-27T16:27:35;3.28;;;2.30;;
67528;SDS011;54366;51.980;5.856;2022-09-27T16:30:01;3.15;;;2.50;;
67528;SDS011;54366;51.980;5.856;2022-09-27T16:32:28;1.50;;;1.40;;
67528;SDS011;54366;51.980;5.856;2022-09-27T16:34:54;2.85;;;1.40;;
67528;SDS011;54366;51.980;5.856;2022-09-27T16:37:22;2.88;;;1.33;;
67528;SDS011;54366;51.980;5.856;2022-09-27T16:39:48;2.92;;;1.20;;
67528;SDS011;54366;51.980;5.856;2022-09-27T16:42:14;4.80;;;3.15;;
67528;SDS011;54366;51.980;5.856;2022-09-27T16:44:41;2.53;;;1.92;;
67528;SDS011;54366;51.980;5.856;2022-09-27T16:47:07;3.20;;;2.00;;
67528;SDS011;54366;51.980;5.856;2022-09-27T16:49:34;2.78;;;2.30;;
67528;SDS011;54366;51.980;5.856;2022-09-27T16:52:18;3.30;;;1.20;;
67528;SDS011;54366;51.980;5.856;2022-09-27T16:54:45;1.85;;;1.20;;
67528;SDS011;54366;51.980;5.856;2022-09-27T16:57:11;2.15;;;1.20;;
67528;SDS011;54366;51.980;5.856;2022-09-27T16:59:37;4.47;;;3.13;;
67528;SDS011;54366;51.980;5.856;2022-09-27T17:02:03;3.17;;;1.60;;
67528;SDS011;54366;51.980;5.856;2022-09-27T17:04:30;2.80;;;1.08;;
67528;SDS011;54366;51.980;5.856;2022-09-27T17:06:56;3.40;;;2.72;;
67528;SDS011;54366;51.980;5.856;2022-09-27T17:09:23;3.25;;;2.30;;
67528;SDS011;54366;51.980;5.856;2022-09-27T17:11:49;4.32;;;2.65;;
67528;SDS011;54366;51.980;5.856;2022-09-27T17:14:16;3.67;;;3.13;;
67528;SDS011;54366;51.980;5.856;2022-09-27T17:16:42;3.83;;;1.88;;
67528;SDS011;54366;51.980;5.856;2022-09-27T17:19:10;3.22;;;1.70;;
67528;SDS011;54366;51.980;5.856;2022-09-27T17:21:36;4.25;;;2.10;;
67528;SDS011;54366;51.980;5.856;2022-09-27T17:24:03;3.95;;;2.20;;
67528;SDS011;54366;51.980;5.856;2022-09-27T17:26:29;6.47;;;2.75;;
67528;SDS011;54366;51.980;5.856;2022-09-27T17:28:57;4.75;;;2.50;;
67528;SDS011;54366;51.980;5.856;2022-09-27T17:31:25;4.47;;;2.08;;
67528;SDS011;54366;51.980;5.856;2022-09-27T17:33:53;3.55;;;1.50;;
67528;SDS011;54366;51.980;5.856;2022-09-27T17:36:21;2.67;;;2.08;;
67528;SDS011;54366;51.980;5.856;2022-09-27T17:38:49;2.80;;;1.75;;
67528;SDS011;54366;51.980;5.856;2022-09-27T17:41:18;2.20;;;1.00;;
67528;SDS011;54366;51.980;5.856;2022-09-27T17:43:51;1.92;;;0.60;;
67528;SDS011;54366;51.980;5.856;2022-09-27T17:46:20;2.72;;;0.50;;
67528;SDS011;54366;51.980;5.856;2022-09-27T17:48:48;3.50;;;0.50;;
67528;SDS011;54366;51.980;5.856;2022-09-27T17:51:34;1.13;;;0.40;;
67528;SDS011;54366;51.980;5.856;2022-09-27T17:54:02;2.33;;;0.55;;
67528;SDS011;54366;51.980;5.856;2022-09-27T17:56:29;2.83;;;0.40;;
67528;SDS011;54366;51.980;5.856;2022-09-27T17:58:59;1.40;;;0.70;;
67528;SDS011;54366;51.980;5.856;2022-09-27T18:01:25;1.45;;;0.30;;
67528;SDS011;54366;51.980;5.856;2022-09-27T18:03:53;1.50;;;0.55;;
67528;SDS011;54366;51.980;5.856;2022-09-27T18:06:20;1.45;;;0.50;;
67528;SDS011;54366;51.980;5.856;2022-09-27T18:08:47;1.80;;;0.90;;
67528;SDS011;54366;51.980;5.856;2022-09-27T18:11:16;1.60;;;0.50;;